sensor_id;sensor_type;location;lat;lon;timestamp;temperature;humidity
23618;DHT22;18207;32.078;34.818;2022-07-10T00:00:09;31.10;48.00
23618;DHT22;18207;32.078;34.818;2022-07-10T00:02:46;31.10;48.10
23618;DHT22;18207;32.078;34.818;2022-07-10T00:05:19;31.10;48.10
23618;DHT22;18207;32.078;34.818;2022-07-10T00:07:51;31.10;48.10
23618;DHT22;18207;32.078;34.818;2022-07-10T00:10:23;31.10;48.10
23618;DHT22;18207;32.078;34.818;2022-07-10T00:12:57;31.10;48.10
23618;DHT22;18207;32.078;34.818;2022-07-10T00:15:28;31.10;48.10
23618;DHT22;18207;32.078;34.818;2022-07-10T00:18:03;31.10;48.10
23618;DHT22;18207;32.078;34.818;2022-07-10T00:20:34;31.10;48.20
23618;DHT22;18207;32.078;34.818;2022-07-10T00:23:06;31.10;48.10
23618;DHT22;18207;32.078;34.818;2022-07-10T00:25:37;31.10;48.10
23618;DHT22;18207;32.078;34.818;2022-07-10T00:28:08;31.10;48.20
23618;DHT22;18207;32.078;34.818;2022-07-10T00:30:40;31.00;48.20
23618;DHT22;18207;32.078;34.818;2022-07-10T00:33:14;31.00;48.20
23618;DHT22;18207;32.078;34.818;2022-07-10T00:35:47;31.00;48.30
23618;DHT22;18207;32.078;34.818;2022-07-10T00:38:18;31.00;48.20
23618;DHT22;18207;32.078;34.818;2022-07-10T00:40:49;31.00;48.30
23618;DHT22;18207;32.078;34.818;2022-07-10T00:43:21;30.90;48.30
23618;DHT22;18207;32.078;34.818;2022-07-10T00:45:53;30.90;48.30
23618;DHT22;18207;32.078;34.818;2022-07-10T00:48:27;30.90;48.40
23618;DHT22;18207;32.078;34.818;2022-07-10T00:50:58;30.90;48.50
23618;DHT22;18207;32.078;34.818;2022-07-10T00:53:29;30.90;48.50
23618;DHT22;18207;32.078;34.818;2022-07-10T00:56:00;30.90;49.00
23618;DHT22;18207;32.078;34.818;2022-07-10T00:58:31;30.90;48.40
23618;DHT22;18207;32.078;34.818;2022-07-10T01:01:04;30.90;48.40
23618;DHT22;18207;32.078;34.818;2022-07-10T01:03:38;30.90;48.60
23618;DHT22;18207;32.078;34.818;2022-07-10T01:06:09;30.90;48.60
23618;DHT22;18207;32.078;34.818;2022-07-10T01:08:41;30.80;48.50
23618;DHT22;18207;32.078;34.818;2022-07-10T01:11:13;30.80;48.50
23618;DHT22;18207;32.078;34.818;2022-07-10T01:13:45;30.80;48.60
23618;DHT22;18207;32.078;34.818;2022-07-10T01:16:17;30.80;48.60
23618;DHT22;18207;32.078;34.818;2022-07-10T01:18:53;30.80;48.60
23618;DHT22;18207;32.078;34.818;2022-07-10T01:21:26;30.80;48.60
23618;DHT22;18207;32.078;34.818;2022-07-10T01:23:59;30.80;48.70
23618;DHT22;18207;32.078;34.818;2022-07-10T01:26:34;30.80;48.60
23618;DHT22;18207;32.078;34.818;2022-07-10T01:29:07;30.80;48.60
23618;DHT22;18207;32.078;34.818;2022-07-10T01:31:39;30.80;48.70
23618;DHT22;18207;32.078;34.818;2022-07-10T01:34:11;30.80;48.70
23618;DHT22;18207;32.078;34.818;2022-07-10T01:36:44;30.80;48.80
23618;DHT22;18207;32.078;34.818;2022-07-10T01:39:15;30.70;48.70
23618;DHT22;18207;32.078;34.818;2022-07-10T01:41:47;30.80;48.80
23618;DHT22;18207;32.078;34.818;2022-07-10T01:44:19;30.70;48.70
23618;DHT22;18207;32.078;34.818;2022-07-10T01:46:50;30.70;48.80
23618;DHT22;18207;32.078;34.818;2022-07-10T01:49:21;30.70;48.80
23618;DHT22;18207;32.078;34.818;2022-07-10T01:51:54;30.70;48.80
23618;DHT22;18207;32.078;34.818;2022-07-10T01:54:25;30.70;48.80
23618;DHT22;18207;32.078;34.818;2022-07-10T01:56:56;30.70;48.80
23618;DHT22;18207;32.078;34.818;2022-07-10T01:59:27;30.70;48.80
23618;DHT22;18207;32.078;34.818;2022-07-10T02:01:58;30.70;48.80
23618;DHT22;18207;32.078;34.818;2022-07-10T02:04:30;30.60;48.80
23618;DHT22;18207;32.078;34.818;2022-07-10T02:07:15;30.60;48.80
23618;DHT22;18207;32.078;34.818;2022-07-10T02:09:49;30.60;48.80
23618;DHT22;18207;32.078;34.818;2022-07-10T02:12:20;30.60;48.80
23618;DHT22;18207;32.078;34.818;2022-07-10T02:14:51;30.50;48.70
23618;DHT22;18207;32.078;34.818;2022-07-10T02:17:29;30.50;48.80
23618;DHT22;18207;32.078;34.818;2022-07-10T02:20:00;30.50;48.80
23618;DHT22;18207;32.078;34.818;2022-07-10T02:22:34;30.50;48.90
23618;DHT22;18207;32.078;34.818;2022-07-10T02:25:07;30.40;48.80
23618;DHT22;18207;32.078;34.818;2022-07-10T02:27:39;30.40;48.90
23618;DHT22;18207;32.078;34.818;2022-07-10T02:30:10;30.40;48.90
23618;DHT22;18207;32.078;34.818;2022-07-10T02:32:42;30.40;48.90
23618;DHT22;18207;32.078;34.818;2022-07-10T02:35:13;30.40;49.00
23618;DHT22;18207;32.078;34.818;2022-07-10T02:37:46;30.40;48.90
23618;DHT22;18207;32.078;34.818;2022-07-10T02:40:17;30.40;49.00
23618;DHT22;18207;32.078;34.818;2022-07-10T02:42:49;30.30;48.90
23618;DHT22;18207;32.078;34.818;2022-07-10T02:45:24;30.30;49.00
23618;DHT22;18207;32.078;34.818;2022-07-10T02:47:55;30.30;49.10
23618;DHT22;18207;32.078;34.818;2022-07-10T02:50:38;30.30;49.10
23618;DHT22;18207;32.078;34.818;2022-07-10T02:53:20;30.30;49.20
23618;DHT22;18207;32.078;34.818;2022-07-10T02:55:51;30.30;49.00
23618;DHT22;18207;32.078;34.818;2022-07-10T02:58:22;30.20;49.10
23618;DHT22;18207;32.078;34.818;2022-07-10T03:00:54;30.20;49.10
23618;DHT22;18207;32.078;34.818;2022-07-10T03:03:26;30.20;49.10
23618;DHT22;18207;32.078;34.818;2022-07-10T03:05:57;30.20;49.10
23618;DHT22;18207;32.078;34.818;2022-07-10T03:08:32;30.20;49.10
23618;DHT22;18207;32.078;34.818;2022-07-10T03:11:03;30.20;49.20
23618;DHT22;18207;32.078;34.818;2022-07-10T03:13:34;30.20;49.30
23618;DHT22;18207;32.078;34.818;2022-07-10T03:16:06;30.20;49.30
23618;DHT22;18207;32.078;34.818;2022-07-10T03:18:37;30.20;49.30
23618;DHT22;18207;32.078;34.818;2022-07-10T03:21:09;30.20;49.30
23618;DHT22;18207;32.078;34.818;2022-07-10T03:23:43;30.20;49.30
23618;DHT22;18207;32.078;34.818;2022-07-10T03:26:14;30.20;49.30
23618;DHT22;18207;32.078;34.818;2022-07-10T03:28:46;30.20;49.40
23618;DHT22;18207;32.078;34.818;2022-07-10T03:31:18;30.30;49.40
23618;DHT22;18207;32.078;34.818;2022-07-10T03:33:49;30.20;49.30
23618;DHT22;18207;32.078;34.818;2022-07-10T03:36:20;30.20;49.40
23618;DHT22;18207;32.078;34.818;2022-07-10T03:38:54;30.20;49.40
23618;DHT22;18207;32.078;34.818;2022-07-10T03:41:25;30.20;49.40
23618;DHT22;18207;32.078;34.818;2022-07-10T03:43:56;30.20;49.40
23618;DHT22;18207;32.078;34.818;2022-07-10T03:46:28;30.30;49.40
23618;DHT22;18207;32.078;34.818;2022-07-10T03:48:59;30.30;49.50
23618;DHT22;18207;32.078;34.818;2022-07-10T03:51:31;30.30;49.50
23618;DHT22;18207;32.078;34.818;2022-07-10T03:54:04;30.30;49.50
23618;DHT22;18207;32.078;34.818;2022-07-10T03:56:36;30.30;49.50
23618;DHT22;18207;32.078;34.818;2022-07-10T03:59:23;30.30;49.60
23618;DHT22;18207;32.078;34.818;2022-07-10T04:01:54;30.40;49.70
23618;DHT22;18207;32.078;34.818;2022-07-10T04:04:25;30.40;49.70
23618;DHT22;18207;32.078;34.818;2022-07-10T04:06:57;30.40;49.70
23618;DHT22;18207;32.078;34.818;2022-07-10T04:09:31;30.40;49.70
23618;DHT22;18207;32.078;34.818;2022-07-10T04:12:02;30.40;49.70
23618;DHT22;18207;32.078;34.818;2022-07-10T04:14:33;30.50;49.80
23618;DHT22;18207;32.078;34.818;2022-07-10T04:17:04;30.50;49.80
23618;DHT22;18207;32.078;34.818;2022-07-10T04:19:36;30.50;49.80
23618;DHT22;18207;32.078;34.818;2022-07-10T04:22:08;30.50;49.90
23618;DHT22;18207;32.078;34.818;2022-07-10T04:24:41;30.60;49.90
23618;DHT22;18207;32.078;34.818;2022-07-10T04:27:12;30.60;49.90
23618;DHT22;18207;32.078;34.818;2022-07-10T04:29:44;30.70;49.90
23618;DHT22;18207;32.078;34.818;2022-07-10T04:32:16;30.70;49.90
23618;DHT22;18207;32.078;34.818;2022-07-10T04:34:48;30.70;49.90
23618;DHT22;18207;32.078;34.818;2022-07-10T04:37:20;30.70;49.90
23618;DHT22;18207;32.078;34.818;2022-07-10T04:39:53;30.80;49.90
23618;DHT22;18207;32.078;34.818;2022-07-10T04:42:25;30.80;49.90
23618;DHT22;18207;32.078;34.818;2022-07-10T04:44:57;30.90;49.90
23618;DHT22;18207;32.078;34.818;2022-07-10T04:47:28;30.90;49.90
23618;DHT22;18207;32.078;34.818;2022-07-10T04:50:00;30.90;49.90
23618;DHT22;18207;32.078;34.818;2022-07-10T04:52:31;30.90;49.80
23618;DHT22;18207;32.078;34.818;2022-07-10T04:55:06;31.00;49.90
23618;DHT22;18207;32.078;34.818;2022-07-10T04:57:45;31.10;50.00
23618;DHT22;18207;32.078;34.818;2022-07-10T05:00:16;31.10;49.90
23618;DHT22;18207;32.078;34.818;2022-07-10T05:02:47;31.10;49.90
23618;DHT22;18207;32.078;34.818;2022-07-10T05:05:18;31.10;49.80
23618;DHT22;18207;32.078;34.818;2022-07-10T05:07:50;31.20;49.80
23618;DHT22;18207;32.078;34.818;2022-07-10T05:10:24;31.20;49.80
23618;DHT22;18207;32.078;34.818;2022-07-10T05:12:55;31.30;49.90
23618;DHT22;18207;32.078;34.818;2022-07-10T05:15:26;31.30;49.90
23618;DHT22;18207;32.078;34.818;2022-07-10T05:17:58;31.40;50.00
23618;DHT22;18207;32.078;34.818;2022-07-10T05:20:28;31.40;49.80
23618;DHT22;18207;32.078;34.818;2022-07-10T05:23:01;31.40;49.80
23618;DHT22;18207;32.078;34.818;2022-07-10T05:25:34;31.40;49.80
23618;DHT22;18207;32.078;34.818;2022-07-10T05:28:05;31.50;49.80
23618;DHT22;18207;32.078;34.818;2022-07-10T05:30:36;31.60;49.80
23618;DHT22;18207;32.078;34.818;2022-07-10T05:33:08;31.60;49.80
23618;DHT22;18207;32.078;34.818;2022-07-10T05:35:38;31.60;49.70
23618;DHT22;18207;32.078;34.818;2022-07-10T05:38:10;31.60;49.60
23618;DHT22;18207;32.078;34.818;2022-07-10T05:40:43;31.70;49.80
23618;DHT22;18207;32.078;34.818;2022-07-10T05:43:15;31.70;49.70
23618;DHT22;18207;32.078;34.818;2022-07-10T05:45:46;31.80;49.70
23618;DHT22;18207;32.078;34.818;2022-07-10T05:48:24;31.80;49.70
23618;DHT22;18207;32.078;34.818;2022-07-10T05:50:56;31.80;49.70
23618;DHT22;18207;32.078;34.818;2022-07-10T05:53:47;31.90;49.60
23618;DHT22;18207;32.078;34.818;2022-07-10T05:56:20;32.00;49.70
23618;DHT22;18207;32.078;34.818;2022-07-10T05:58:52;32.00;49.60
23618;DHT22;18207;32.078;34.818;2022-07-10T06:01:24;32.10;49.60
23618;DHT22;18207;32.078;34.818;2022-07-10T06:04:01;32.10;49.50
23618;DHT22;18207;32.078;34.818;2022-07-10T06:06:35;32.10;49.50
23618;DHT22;18207;32.078;34.818;2022-07-10T06:09:06;32.20;49.50
23618;DHT22;18207;32.078;34.818;2022-07-10T06:11:40;32.30;49.40
23618;DHT22;18207;32.078;34.818;2022-07-10T06:14:14;32.30;49.40
23618;DHT22;18207;32.078;34.818;2022-07-10T06:16:46;32.30;49.30
23618;DHT22;18207;32.078;34.818;2022-07-10T06:19:17;32.40;49.40
23618;DHT22;18207;32.078;34.818;2022-07-10T06:21:48;32.50;49.30
23618;DHT22;18207;32.078;34.818;2022-07-10T06:24:40;32.50;49.10
23618;DHT22;18207;32.078;34.818;2022-07-10T06:27:14;32.50;49.00
23618;DHT22;18207;32.078;34.818;2022-07-10T06:29:46;32.60;48.90
23618;DHT22;18207;32.078;34.818;2022-07-10T06:32:17;32.60;48.80
23618;DHT22;18207;32.078;34.818;2022-07-10T06:34:49;32.70;48.80
23618;DHT22;18207;32.078;34.818;2022-07-10T06:37:20;32.80;48.90
23618;DHT22;18207;32.078;34.818;2022-07-10T06:39:52;32.80;48.90
23618;DHT22;18207;32.078;34.818;2022-07-10T06:42:26;32.90;48.90
23618;DHT22;18207;32.078;34.818;2022-07-10T06:44:57;32.90;48.70
23618;DHT22;18207;32.078;34.818;2022-07-10T06:47:28;33.00;48.70
23618;DHT22;18207;32.078;34.818;2022-07-10T06:50:20;33.00;48.60
23618;DHT22;18207;32.078;34.818;2022-07-10T06:52:52;33.10;48.50
23618;DHT22;18207;32.078;34.818;2022-07-10T06:55:24;33.20;48.40
23618;DHT22;18207;32.078;34.818;2022-07-10T06:58:00;33.20;48.30
23618;DHT22;18207;32.078;34.818;2022-07-10T07:00:31;33.20;48.10
23618;DHT22;18207;32.078;34.818;2022-07-10T07:03:03;33.40;48.20
23618;DHT22;18207;32.078;34.818;2022-07-10T07:05:34;33.40;48.10
23618;DHT22;18207;32.078;34.818;2022-07-10T07:08:04;33.40;48.00
23618;DHT22;18207;32.078;34.818;2022-07-10T07:10:35;33.40;47.90
23618;DHT22;18207;32.078;34.818;2022-07-10T07:13:09;33.60;47.90
23618;DHT22;18207;32.078;34.818;2022-07-10T07:15:41;33.60;48.50
23618;DHT22;18207;32.078;34.818;2022-07-10T07:18:19;33.60;47.90
23618;DHT22;18207;32.078;34.818;2022-07-10T07:21:00;33.70;47.90
23618;DHT22;18207;32.078;34.818;2022-07-10T07:23:48;33.80;47.80
23618;DHT22;18207;32.078;34.818;2022-07-10T07:26:19;33.80;47.60
23618;DHT22;18207;32.078;34.818;2022-07-10T07:28:52;33.80;47.50
23618;DHT22;18207;32.078;34.818;2022-07-10T07:31:24;33.90;47.40
23618;DHT22;18207;32.078;34.818;2022-07-10T07:33:55;34.00;47.40
23618;DHT22;18207;32.078;34.818;2022-07-10T07:36:26;33.90;47.20
23618;DHT22;18207;32.078;34.818;2022-07-10T07:38:58;34.00;47.00
23618;DHT22;18207;32.078;34.818;2022-07-10T07:41:30;34.00;47.00
23618;DHT22;18207;32.078;34.818;2022-07-10T07:44:03;34.10;46.90
23618;DHT22;18207;32.078;34.818;2022-07-10T07:46:34;34.10;46.80
23618;DHT22;18207;32.078;34.818;2022-07-10T07:49:06;34.10;46.70
23618;DHT22;18207;32.078;34.818;2022-07-10T07:51:37;34.10;46.50
23618;DHT22;18207;32.078;34.818;2022-07-10T07:54:08;34.10;46.50
23618;DHT22;18207;32.078;34.818;2022-07-10T07:56:40;34.10;46.30
23618;DHT22;18207;32.078;34.818;2022-07-10T07:59:13;34.10;46.30
23618;DHT22;18207;32.078;34.818;2022-07-10T08:01:45;34.20;46.30
23618;DHT22;18207;32.078;34.818;2022-07-10T08:04:18;34.20;46.20
23618;DHT22;18207;32.078;34.818;2022-07-10T08:06:49;34.20;46.20
23618;DHT22;18207;32.078;34.818;2022-07-10T08:09:21;34.30;46.30
23618;DHT22;18207;32.078;34.818;2022-07-10T08:11:53;34.30;46.20
23618;DHT22;18207;32.078;34.818;2022-07-10T08:14:27;34.30;46.10
23618;DHT22;18207;32.078;34.818;2022-07-10T08:16:58;34.30;46.10
23618;DHT22;18207;32.078;34.818;2022-07-10T08:19:30;34.30;46.00
23618;DHT22;18207;32.078;34.818;2022-07-10T08:22:01;34.30;46.00
23618;DHT22;18207;32.078;34.818;2022-07-10T08:24:33;34.40;46.00
23618;DHT22;18207;32.078;34.818;2022-07-10T08:27:05;34.40;45.90
23618;DHT22;18207;32.078;34.818;2022-07-10T08:29:39;34.40;45.70
23618;DHT22;18207;32.078;34.818;2022-07-10T08:32:10;34.50;45.70
23618;DHT22;18207;32.078;34.818;2022-07-10T08:34:41;34.50;45.70
23618;DHT22;18207;32.078;34.818;2022-07-10T08:37:13;34.50;45.60
23618;DHT22;18207;32.078;34.818;2022-07-10T08:39:44;34.50;45.60
23618;DHT22;18207;32.078;34.818;2022-07-10T08:42:16;34.60;45.50
23618;DHT22;18207;32.078;34.818;2022-07-10T08:44:53;34.60;45.50
23618;DHT22;18207;32.078;34.818;2022-07-10T08:47:24;34.60;45.40
23618;DHT22;18207;32.078;34.818;2022-07-10T08:50:05;34.60;45.30
23618;DHT22;18207;32.078;34.818;2022-07-10T08:52:51;34.60;45.30
23618;DHT22;18207;32.078;34.818;2022-07-10T08:55:36;34.70;45.20
23618;DHT22;18207;32.078;34.818;2022-07-10T08:58:09;34.70;45.20
23618;DHT22;18207;32.078;34.818;2022-07-10T09:00:45;34.70;45.10
23618;DHT22;18207;32.078;34.818;2022-07-10T09:03:17;34.80;45.20
23618;DHT22;18207;32.078;34.818;2022-07-10T09:05:48;34.90;45.20
23618;DHT22;18207;32.078;34.818;2022-07-10T09:08:22;34.80;45.10
23618;DHT22;18207;32.078;34.818;2022-07-10T09:11:13;34.80;45.10
23618;DHT22;18207;32.078;34.818;2022-07-10T09:13:53;34.90;44.90
23618;DHT22;18207;32.078;34.818;2022-07-10T09:16:31;34.90;44.80
23618;DHT22;18207;32.078;34.818;2022-07-10T09:19:18;34.90;44.80
23618;DHT22;18207;32.078;34.818;2022-07-10T09:21:51;34.90;44.70
23618;DHT22;18207;32.078;34.818;2022-07-10T09:24:25;35.00;44.80
23618;DHT22;18207;32.078;34.818;2022-07-10T09:27:01;35.00;45.50
23618;DHT22;18207;32.078;34.818;2022-07-10T09:29:43;35.00;44.80
23618;DHT22;18207;32.078;34.818;2022-07-10T09:32:18;35.00;44.80
23618;DHT22;18207;32.078;34.818;2022-07-10T09:34:51;35.00;44.80
23618;DHT22;18207;32.078;34.818;2022-07-10T09:37:43;35.10;44.80
23618;DHT22;18207;32.078;34.818;2022-07-10T09:40:14;35.10;44.80
23618;DHT22;18207;32.078;34.818;2022-07-10T09:42:46;35.10;44.80
23618;DHT22;18207;32.078;34.818;2022-07-10T09:45:21;35.10;45.40
23618;DHT22;18207;32.078;34.818;2022-07-10T09:47:58;35.10;44.60
23618;DHT22;18207;32.078;34.818;2022-07-10T09:50:33;35.10;44.60
23618;DHT22;18207;32.078;34.818;2022-07-10T09:53:06;35.10;44.60
23618;DHT22;18207;32.078;34.818;2022-07-10T09:55:40;35.20;44.70
23618;DHT22;18207;32.078;34.818;2022-07-10T09:58:14;35.10;44.60
23618;DHT22;18207;32.078;34.818;2022-07-10T10:00:47;35.20;44.60
23618;DHT22;18207;32.078;34.818;2022-07-10T10:03:24;35.20;44.50
23618;DHT22;18207;32.078;34.818;2022-07-10T10:05:55;35.10;44.40
23618;DHT22;18207;32.078;34.818;2022-07-10T10:08:37;35.20;44.50
23618;DHT22;18207;32.078;34.818;2022-07-10T10:11:20;35.20;44.60
23618;DHT22;18207;32.078;34.818;2022-07-10T10:13:55;35.20;44.60
23618;DHT22;18207;32.078;34.818;2022-07-10T10:16:29;35.20;44.50
23618;DHT22;18207;32.078;34.818;2022-07-10T10:19:07;35.20;44.50
23618;DHT22;18207;32.078;34.818;2022-07-10T10:21:58;35.20;44.50
23618;DHT22;18207;32.078;34.818;2022-07-10T10:24:32;35.20;44.50
23618;DHT22;18207;32.078;34.818;2022-07-10T10:27:06;35.10;44.40
23618;DHT22;18207;32.078;34.818;2022-07-10T10:29:39;35.20;44.50
23618;DHT22;18207;32.078;34.818;2022-07-10T10:32:12;35.10;44.40
23618;DHT22;18207;32.078;34.818;2022-07-10T10:34:48;35.10;44.40
23618;DHT22;18207;32.078;34.818;2022-07-10T10:37:37;35.10;44.40
23618;DHT22;18207;32.078;34.818;2022-07-10T10:40:30;35.10;44.40
23618;DHT22;18207;32.078;34.818;2022-07-10T10:43:19;35.10;44.40
23618;DHT22;18207;32.078;34.818;2022-07-10T10:45:51;35.20;44.50
23618;DHT22;18207;32.078;34.818;2022-07-10T10:48:22;35.10;44.40
23618;DHT22;18207;32.078;34.818;2022-07-10T10:51:11;35.10;44.40
23618;DHT22;18207;32.078;34.818;2022-07-10T10:53:41;35.20;44.40
23618;DHT22;18207;32.078;34.818;2022-07-10T10:56:23;35.10;44.30
23618;DHT22;18207;32.078;34.818;2022-07-10T10:58:55;35.10;44.30
23618;DHT22;18207;32.078;34.818;2022-07-10T11:01:28;35.20;44.30
23618;DHT22;18207;32.078;34.818;2022-07-10T11:04:18;35.10;44.30
23618;DHT22;18207;32.078;34.818;2022-07-10T11:06:53;35.10;44.30
23618;DHT22;18207;32.078;34.818;2022-07-10T11:09:26;35.10;44.30
23618;DHT22;18207;32.078;34.818;2022-07-10T11:12:00;35.10;44.30
23618;DHT22;18207;32.078;34.818;2022-07-10T11:14:34;35.20;44.30
23618;DHT22;18207;32.078;34.818;2022-07-10T11:17:08;35.10;44.30
23618;DHT22;18207;32.078;34.818;2022-07-10T11:19:41;35.10;44.30
23618;DHT22;18207;32.078;34.818;2022-07-10T11:22:46;35.10;44.30
23618;DHT22;18207;32.078;34.818;2022-07-10T11:25:36;35.10;44.20
23618;DHT22;18207;32.078;34.818;2022-07-10T11:28:22;35.10;44.20
23618;DHT22;18207;32.078;34.818;2022-07-10T11:30:58;35.10;44.20
23618;DHT22;18207;32.078;34.818;2022-07-10T11:33:39;35.20;44.30
23618;DHT22;18207;32.078;34.818;2022-07-10T11:36:13;35.20;44.30
23618;DHT22;18207;32.078;34.818;2022-07-10T11:38:47;35.20;44.30
23618;DHT22;18207;32.078;34.818;2022-07-10T11:41:25;35.10;44.20
23618;DHT22;18207;32.078;34.818;2022-07-10T11:44:00;35.10;44.20
23618;DHT22;18207;32.078;34.818;2022-07-10T11:46:33;35.10;44.20
23618;DHT22;18207;32.078;34.818;2022-07-10T11:49:07;35.10;44.20
23618;DHT22;18207;32.078;34.818;2022-07-10T11:51:43;35.10;44.00
23618;DHT22;18207;32.078;34.818;2022-07-10T11:54:32;35.10;44.00
23618;DHT22;18207;32.078;34.818;2022-07-10T11:57:05;35.10;43.80
23618;DHT22;18207;32.078;34.818;2022-07-10T11:59:37;35.10;43.80
23618;DHT22;18207;32.078;34.818;2022-07-10T12:02:08;35.10;43.80
23618;DHT22;18207;32.078;34.818;2022-07-10T12:04:40;35.10;43.80
23618;DHT22;18207;32.078;34.818;2022-07-10T12:07:13;35.10;43.70
23618;DHT22;18207;32.078;34.818;2022-07-10T12:09:52;35.10;43.70
23618;DHT22;18207;32.078;34.818;2022-07-10T12:12:24;35.10;43.60
23618;DHT22;18207;32.078;34.818;2022-07-10T12:14:56;35.10;43.60
23618;DHT22;18207;32.078;34.818;2022-07-10T12:17:27;35.10;43.60
23618;DHT22;18207;32.078;34.818;2022-07-10T12:19:59;35.00;43.60
23618;DHT22;18207;32.078;34.818;2022-07-10T12:22:31;35.00;43.70
23618;DHT22;18207;32.078;34.818;2022-07-10T12:25:09;35.00;43.70
23618;DHT22;18207;32.078;34.818;2022-07-10T12:27:40;35.00;43.60
23618;DHT22;18207;32.078;34.818;2022-07-10T12:30:17;35.00;43.70
23618;DHT22;18207;32.078;34.818;2022-07-10T12:32:49;35.00;43.70
23618;DHT22;18207;32.078;34.818;2022-07-10T12:35:20;35.00;43.70
23618;DHT22;18207;32.078;34.818;2022-07-10T12:37:51;34.90;43.80
23618;DHT22;18207;32.078;34.818;2022-07-10T12:40:35;34.90;43.80
23618;DHT22;18207;32.078;34.818;2022-07-10T12:43:06;34.90;43.70
23618;DHT22;18207;32.078;34.818;2022-07-10T12:45:39;34.90;43.80
23618;DHT22;18207;32.078;34.818;2022-07-10T12:48:21;34.90;43.80
23618;DHT22;18207;32.078;34.818;2022-07-10T12:50:52;34.90;43.80
23618;DHT22;18207;32.078;34.818;2022-07-10T12:53:23;34.90;43.80
23618;DHT22;18207;32.078;34.818;2022-07-10T12:55:57;34.90;43.80
23618;DHT22;18207;32.078;34.818;2022-07-10T12:58:29;34.90;43.80
23618;DHT22;18207;32.078;34.818;2022-07-10T13:01:01;34.90;43.90
23618;DHT22;18207;32.078;34.818;2022-07-10T13:03:32;34.90;43.90
23618;DHT22;18207;32.078;34.818;2022-07-10T13:06:04;34.90;44.00
23618;DHT22;18207;32.078;34.818;2022-07-10T13:08:45;34.80;44.00
23618;DHT22;18207;32.078;34.818;2022-07-10T13:11:18;34.90;44.00
23618;DHT22;18207;32.078;34.818;2022-07-10T13:13:49;34.90;44.00
23618;DHT22;18207;32.078;34.818;2022-07-10T13:16:21;34.80;43.80
23618;DHT22;18207;32.078;34.818;2022-07-10T13:18:54;34.80;43.80
23618;DHT22;18207;32.078;34.818;2022-07-10T13:21:25;34.80;43.80
23618;DHT22;18207;32.078;34.818;2022-07-10T13:23:56;34.80;43.80
23618;DHT22;18207;32.078;34.818;2022-07-10T13:26:31;34.80;43.90
23618;DHT22;18207;32.078;34.818;2022-07-10T13:29:03;34.70;43.80
23618;DHT22;18207;32.078;34.818;2022-07-10T13:31:35;34.70;43.80
23618;DHT22;18207;32.078;34.818;2022-07-10T13:34:08;34.70;43.80
23618;DHT22;18207;32.078;34.818;2022-07-10T13:36:39;34.70;44.00
23618;DHT22;18207;32.078;34.818;2022-07-10T13:39:11;34.70;44.00
23618;DHT22;18207;32.078;34.818;2022-07-10T13:41:45;34.70;44.00
23618;DHT22;18207;32.078;34.818;2022-07-10T13:44:15;34.70;44.00
23618;DHT22;18207;32.078;34.818;2022-07-10T13:46:46;34.70;44.00
23618;DHT22;18207;32.078;34.818;2022-07-10T13:49:18;34.60;44.10
23618;DHT22;18207;32.078;34.818;2022-07-10T13:51:55;34.70;44.00
23618;DHT22;18207;32.078;34.818;2022-07-10T13:54:27;34.70;44.00
23618;DHT22;18207;32.078;34.818;2022-07-10T13:57:01;34.70;44.00
23618;DHT22;18207;32.078;34.818;2022-07-10T13:59:32;34.60;43.90
23618;DHT22;18207;32.078;34.818;2022-07-10T14:02:06;34.60;43.90
23618;DHT22;18207;32.078;34.818;2022-07-10T14:04:43;34.60;44.00
23618;DHT22;18207;32.078;34.818;2022-07-10T14:07:14;34.60;44.00
23618;DHT22;18207;32.078;34.818;2022-07-10T14:09:46;34.60;44.00
23618;DHT22;18207;32.078;34.818;2022-07-10T14:12:19;34.60;44.00
23618;DHT22;18207;32.078;34.818;2022-07-10T14:14:50;34.60;44.00
23618;DHT22;18207;32.078;34.818;2022-07-10T14:17:22;34.60;44.00
23618;DHT22;18207;32.078;34.818;2022-07-10T14:19:54;34.50;43.90
23618;DHT22;18207;32.078;34.818;2022-07-10T14:22:26;34.50;43.90
23618;DHT22;18207;32.078;34.818;2022-07-10T14:24:58;34.50;43.90
23618;DHT22;18207;32.078;34.818;2022-07-10T14:27:31;34.50;44.00
23618;DHT22;18207;32.078;34.818;2022-07-10T14:30:03;34.50;44.00
23618;DHT22;18207;32.078;34.818;2022-07-10T14:32:35;34.50;44.00
23618;DHT22;18207;32.078;34.818;2022-07-10T14:35:07;34.50;44.00
23618;DHT22;18207;32.078;34.818;2022-07-10T14:37:39;34.40;43.90
23618;DHT22;18207;32.078;34.818;2022-07-10T14:40:11;34.40;43.90
23618;DHT22;18207;32.078;34.818;2022-07-10T14:42:44;34.40;44.00
23618;DHT22;18207;32.078;34.818;2022-07-10T14:45:20;34.40;44.00
23618;DHT22;18207;32.078;34.818;2022-07-10T14:48:12;34.40;44.00
23618;DHT22;18207;32.078;34.818;2022-07-10T14:50:43;34.40;44.00
23618;DHT22;18207;32.078;34.818;2022-07-10T14:53:15;34.40;44.00
23618;DHT22;18207;32.078;34.818;2022-07-10T14:55:46;34.30;44.00
23618;DHT22;18207;32.078;34.818;2022-07-10T14:58:20;34.30;44.10
23618;DHT22;18207;32.078;34.818;2022-07-10T15:00:51;34.30;44.20
23618;DHT22;18207;32.078;34.818;2022-07-10T15:03:23;34.20;44.20
23618;DHT22;18207;32.078;34.818;2022-07-10T15:05:55;34.20;44.30
23618;DHT22;18207;32.078;34.818;2022-07-10T15:08:27;34.10;44.30
23618;DHT22;18207;32.078;34.818;2022-07-10T15:11:00;34.10;44.30
23618;DHT22;18207;32.078;34.818;2022-07-10T15:13:36;34.10;44.30
23618;DHT22;18207;32.078;34.818;2022-07-10T15:16:09;34.10;44.40
23618;DHT22;18207;32.078;34.818;2022-07-10T15:18:42;34.10;44.50
23618;DHT22;18207;32.078;34.818;2022-07-10T15:21:14;34.10;44.50
23618;DHT22;18207;32.078;34.818;2022-07-10T15:23:46;34.10;44.50
23618;DHT22;18207;32.078;34.818;2022-07-10T15:26:18;34.10;44.60
23618;DHT22;18207;32.078;34.818;2022-07-10T15:28:53;34.00;44.60
23618;DHT22;18207;32.078;34.818;2022-07-10T15:31:27;34.00;44.60
23618;DHT22;18207;32.078;34.818;2022-07-10T15:33:58;34.00;44.60
23618;DHT22;18207;32.078;34.818;2022-07-10T15:36:36;34.00;44.60
23618;DHT22;18207;32.078;34.818;2022-07-10T15:39:09;34.00;44.60
23618;DHT22;18207;32.078;34.818;2022-07-10T15:41:41;34.00;44.60
23618;DHT22;18207;32.078;34.818;2022-07-10T15:44:17;34.00;44.60
23618;DHT22;18207;32.078;34.818;2022-07-10T15:46:50;34.00;44.60
23618;DHT22;18207;32.078;34.818;2022-07-10T15:49:23;34.00;44.70
23618;DHT22;18207;32.078;34.818;2022-07-10T15:51:55;33.90;44.70
23618;DHT22;18207;32.078;34.818;2022-07-10T15:54:31;33.90;44.70